Ora Direzione Vento Velocita' Vento Media Vento Raffica Max. Temperatura Wind Chill Pioggia Pressione
15:09:17.0336 °(NNW)12.1 Kts12.0 Kts14.0 Kts16.3 °C15.25 °C0.0 mm1023.3 Hpa
14:48:16.0340 °(NNW)11.5 Kts11.06 Kts13.8 Kts16.1 °C15.1 °C0.0 mm1025.0 Hpa
14:28:40.0334 °(NNW)11.0 Kts9.6 Kts13.8 Kts15.8 °C14.72 °C0.0 mm1024.1 Hpa
14:09:14.0350 °(N)10.7 Kts10.26 Kts13.8 Kts15.6 °C14.58 °C0.0 mm1025.2 Hpa
13:48:24.0336 °(NNW)12.8 Kts11.8 Kts13.6 Kts15.5 °C14.19 °C0.0 mm1025.8 Hpa
13:29:01.0335 °(NNW)11.8 Kts12.3 Kts13.6 Kts15.3 °C13.98 °C0.0 mm1024.6 Hpa
13:08:39.0333 °(NNW)11.6 Kts11.56 Kts13.6 Kts15.3 °C14.09 °C0.0 mm1024.2 Hpa
12:48:13.0330 °(NNW)12.4 Kts12.66 Kts13.3 Kts15.1 °C13.68 °C0.0 mm1025.0 Hpa
12:28:51.0325 °(NW)10.5 Kts10.36 Kts10.8 Kts15.3 °C14.2 °C0.0 mm1025.1 Hpa
12:09:07.0325 °(NW)10.5 Kts10.36 Kts10.8 Kts15.3 °C14.2 °C0.0 mm1025.1 Hpa
11:48:48.0319 °(NW)6.0 Kts6.26 Kts10.1 Kts15.1 °C14.64 °C0.0 mm1025.6 Hpa
11:28:25.0311 °(NW)4.3 Kts4.26 Kts10.1 Kts15.0 °C14.9 °C0.0 mm1025.6 Hpa
11:09:14.0293 °(WNW)3.6 Kts3.6 Kts10.1 Kts14.8 °C14.95 °C0.0 mm1025.2 Hpa
10:48:58.0305 °(NW)3.1 Kts3.2 Kts10.1 Kts14.1 °C14.37 °C0.0 mm1025.7 Hpa
10:28:38.019 °(NNE)0.5 Kts0.33 Kts10.1 Kts13.5 °C15.55 °C0.0 mm1023.6 Hpa
10:08:22.071 °(ENE)5.8 Kts5.0 Kts10.1 Kts12.6 °C11.77 °C0.0 mm1022.6 Hpa
09:49:04.018 °(NNE)5.7 Kts6.3 Kts10.1 Kts11.8 °C10.82 °C0.0 mm1025.6 Hpa
09:28:44.026 °(NNE)2.7 Kts3.66 Kts10.1 Kts11.0 °C10.98 °C0.0 mm1024.1 Hpa
09:08:28.032 °(NNE)6.9 Kts5.76 Kts10.1 Kts10.1 °C8.42 °C0.0 mm1024.1 Hpa
08:48:12.012 °(NNE)7.2 Kts4.7 Kts9.6 Kts9.3 °C7.38 °C0.0 mm1025.2 Hpa